Airports

 

 

Airport Name Latest METAR Visual Conditions
Atlantic City Int. (ACY) KACY 172012Z 02014G25KT 2SM -RA BR OVC006 06/04 A3010 RMK AO2 RAB1957 P0000 T00560039 IFR
Baltimore International Airport (BWI) KBWI 171954Z 04007KT 10SM OVC026 07/M01 A3012 RMK AO2 SLP200 T00721006 MVFR
Washington National Airport (DCA) KDCA 171952Z 03010KT 10SM OVC028 08/01 A3013 RMK AO2 SLP202 T00780006 MVFR
Dulles International Airport (IAD) KIAD 171952Z 36008KT 10SM BKN028 OVC040 07/M03 A3012 RMK AO2 SLP203 T00671033 MVFR
Norfolk International Airport (ORF) KORF 171951Z 01018G27KT 10SM OVC012 10/07 A2997 RMK AO2 PK WND 36029/1931 SLP147 T01000067 MVFR
Raleigh International Airport (RDU) KRDU 171951Z 04012G17KT 10SM FEW028 BKN050 11/03 A2999 RMK AO2 SLP155 T01110033 $ VFR
Richmond International Airport (RIC) KRIC 171954Z 02011KT 10SM OVC024 08/01 A3006 RMK AO2 SLP183 T00830011 $ MVFR
Roanoke Regional Airport (ROA) KROA 171954Z 01006KT 10SM BKN023 07/01 A3007 RMK AO2 SLP187 T00720006 MVFR